createdAt,value
2018-07-24T00:00:25.378Z,55.32
2018-07-24T00:02:54.512Z,55.05
2018-07-24T00:05:23.592Z,55.38
2018-07-24T00:07:52.762Z,55.19
2018-07-24T00:10:21.877Z,56.02
2018-07-24T00:12:50.943Z,56.08
2018-07-24T00:15:20.091Z,55.96
2018-07-24T00:17:49.201Z,55.63
2018-07-24T00:20:18.294Z,55.91
2018-07-24T00:22:47.428Z,55.80
2018-07-24T00:25:16.539Z,55.91
2018-07-24T00:27:45.610Z,55.92
2018-07-24T00:30:14.818Z,55.87
2018-07-24T00:32:43.909Z,56.10
2018-07-24T00:35:13.056Z,56.37
2018-07-24T00:37:42.135Z,56.36
2018-07-24T00:40:11.273Z,56.45
2018-07-24T00:42:40.385Z,57.03
2018-07-24T00:45:09.478Z,57.72
2018-07-24T00:47:38.711Z,57.65
2018-07-24T00:50:07.759Z,58.48
2018-07-24T00:52:36.860Z,58.47
2018-07-24T00:55:05.977Z,58.17
2018-07-24T00:57:35.110Z,57.94
2018-07-24T01:00:04.246Z,58.17
2018-07-24T01:02:33.168Z,57.99
2018-07-24T01:05:02.272Z,57.55
2018-07-24T01:07:34.838Z,57.69
2018-07-24T01:10:04.021Z,57.57
2018-07-24T01:12:33.157Z,57.49
2018-07-24T01:15:02.210Z,57.43
2018-07-24T01:17:31.289Z,57.52
2018-07-24T01:20:00.423Z,57.67
2018-07-24T01:22:29.734Z,57.85
2018-07-24T01:24:58.871Z,58.08
2018-07-24T01:27:27.969Z,58.10
2018-07-24T01:29:57.035Z,58.51
2018-07-24T01:32:26.213Z,58.78
2018-07-24T01:34:55.288Z,58.68
2018-07-24T01:37:24.501Z,59.37
2018-07-24T01:39:53.604Z,59.99
2018-07-24T01:42:22.675Z,60.47
2018-07-24T01:44:51.810Z,60.76
2018-07-24T01:47:20.921Z,60.67
2018-07-24T01:49:50.034Z,60.52
2018-07-24T01:52:19.074Z,60.55
2018-07-24T01:54:48.181Z,60.04
2018-07-24T01:57:17.307Z,60.05
2018-07-24T01:59:46.430Z,60.50
2018-07-24T02:02:15.559Z,60.58
2018-07-24T02:04:44.656Z,60.69
2018-07-24T02:07:13.793Z,60.89
2018-07-24T02:09:43.103Z,60.84
2018-07-24T02:12:12.282Z,60.53
2018-07-24T02:14:41.370Z,60.46
2018-07-24T02:17:10.998Z,60.27
2018-07-24T02:19:40.130Z,59.65
2018-07-24T02:22:09.279Z,58.96
2018-07-24T02:24:38.354Z,58.85
2018-07-24T02:27:07.429Z,58.90
2018-07-24T02:29:36.499Z,59.18
2018-07-24T02:32:05.700Z,59.12
2018-07-24T02:34:34.748Z,58.82
2018-07-24T02:37:03.853Z,58.82
2018-07-24T02:39:32.963Z,59.42
2018-07-24T02:42:02.051Z,59.53
2018-07-24T02:44:31.153Z,59.70
2018-07-24T02:47:00.283Z,59.75
2018-07-24T02:49:29.415Z,60.03
2018-07-24T02:51:58.480Z,59.98
2018-07-24T02:54:27.623Z,60.30
2018-07-24T02:56:56.715Z,60.27
2018-07-24T02:59:25.805Z,60.35
2018-07-24T03:01:54.926Z,60.45
2018-07-24T03:04:24.125Z,60.61
2018-07-24T03:06:53.033Z,60.71
2018-07-24T03:09:22.195Z,61.24
2018-07-24T03:11:51.360Z,61.12
2018-07-24T03:14:20.457Z,60.90
2018-07-24T03:16:49.621Z,61.37
2018-07-24T03:19:18.781Z,61.24
2018-07-24T03:21:47.936Z,61.07
2018-07-24T03:24:17.031Z,61.37
2018-07-24T03:26:46.143Z,60.95
2018-07-24T03:29:15.279Z,61.42
2018-07-24T03:31:44.451Z,61.21
2018-07-24T03:34:13.635Z,61.13
2018-07-24T03:36:42.773Z,61.03
2018-07-24T03:39:13.182Z,60.59
2018-07-24T03:41:42.432Z,60.70
2018-07-24T03:44:11.925Z,60.92
2018-07-24T03:46:41.106Z,60.93
2018-07-24T03:49:10.273Z,60.53
2018-07-24T03:51:39.395Z,60.34
2018-07-24T03:54:08.522Z,59.80
2018-07-24T03:56:37.622Z,59.52
2018-07-24T03:59:06.779Z,59.37
2018-07-24T04:01:35.866Z,59.54
2018-07-24T04:04:04.995Z,59.34
2018-07-24T04:06:34.062Z,59.18
2018-07-24T04:09:03.168Z,58.94
2018-07-24T04:11:32.286Z,58.65
2018-07-24T04:14:01.407Z,58.38
2018-07-24T04:16:30.532Z,58.70
2018-07-24T04:18:59.655Z,58.32
2018-07-24T04:21:28.795Z,58.07
2018-07-24T04:23:57.853Z,58.10
2018-07-24T04:26:26.934Z,58.12
2018-07-24T04:28:56.042Z,57.91
2018-07-24T04:31:25.167Z,57.27
2018-07-24T04:33:54.337Z,57.19
2018-07-24T04:36:23.464Z,56.63
2018-07-24T04:38:52.555Z,56.30
2018-07-24T04:41:21.654Z,56.17
2018-07-24T04:43:50.769Z,56.15
2018-07-24T04:46:19.933Z,55.71
2018-07-24T04:48:49.151Z,55.18
2018-07-24T04:51:18.314Z,55.23
2018-07-24T04:53:48.185Z,54.77
2018-07-24T04:56:17.306Z,54.71
2018-07-24T04:58:46.354Z,53.68
2018-07-24T05:01:15.494Z,53.75
2018-07-24T05:03:44.604Z,53.26
2018-07-24T05:06:13.742Z,53.36
2018-07-24T05:08:42.877Z,52.85
2018-07-24T05:11:11.995Z,52.80
2018-07-24T05:13:41.083Z,52.99
2018-07-24T05:16:10.238Z,52.57
2018-07-24T05:18:39.322Z,52.11
2018-07-24T05:21:08.466Z,52.05
2018-07-24T05:23:37.628Z,51.76
2018-07-24T05:26:06.748Z,51.90
2018-07-24T05:28:35.898Z,51.74
2018-07-24T05:31:05.064Z,51.65
2018-07-24T05:33:34.155Z,51.43
2018-07-24T05:36:03.274Z,51.31
2018-07-24T05:38:32.411Z,51.03
2018-07-24T05:41:01.538Z,49.72
2018-07-24T05:43:30.667Z,49.06
2018-07-24T05:45:59.809Z,47.61
2018-07-24T05:48:29.081Z,46.66
2018-07-24T05:50:58.156Z,45.44
2018-07-24T05:53:27.228Z,45.18
2018-07-24T05:55:56.345Z,44.76
2018-07-24T05:58:25.516Z,43.65
2018-07-24T06:00:54.629Z,38.54
2018-07-24T06:03:23.746Z,30.93
2018-07-24T06:05:52.847Z,26.57
2018-07-24T06:08:22.009Z,23.77
2018-07-24T06:10:51.113Z,21.67
2018-07-24T06:13:20.230Z,21.44
2018-07-24T06:15:49.295Z,20.75
2018-07-24T06:18:18.423Z,20.37
2018-07-24T06:20:47.538Z,20.26
2018-07-24T06:23:16.593Z,19.75
2018-07-24T06:25:45.707Z,19.00
2018-07-24T06:28:14.890Z,18.87
2018-07-24T06:30:44.050Z,19.19
2018-07-24T06:33:13.400Z,19.01
2018-07-24T06:35:42.598Z,18.21
2018-07-24T06:38:11.708Z,18.07
2018-07-24T06:40:40.819Z,18.01
2018-07-24T06:43:10.042Z,18.31
2018-07-24T06:45:39.130Z,18.50
2018-07-24T06:48:08.418Z,21.54
2018-07-24T06:50:37.460Z,25.07
2018-07-24T06:53:06.744Z,26.66
2018-07-24T06:55:35.836Z,28.40
2018-07-24T06:58:05.226Z,30.02
2018-07-24T07:00:34.408Z,31.04
2018-07-24T07:03:03.510Z,31.90
2018-07-24T07:05:32.584Z,32.78
2018-07-24T07:08:01.697Z,33.08
2018-07-24T07:10:30.857Z,32.87
2018-07-24T07:12:59.977Z,32.91
2018-07-24T07:15:29.055Z,32.83
2018-07-24T07:17:58.133Z,32.94
2018-07-24T07:20:27.264Z,33.16
2018-07-24T07:22:56.371Z,33.50
2018-07-24T07:25:25.458Z,33.38
2018-07-24T07:27:54.914Z,33.27
2018-07-24T07:30:30.802Z,32.85
2018-07-24T07:32:59.912Z,32.35
2018-07-24T07:35:29.047Z,32.47
2018-07-24T07:37:57.954Z,32.08
2018-07-24T07:40:27.176Z,32.78
2018-07-24T07:42:56.242Z,32.49
2018-07-24T07:45:25.277Z,32.41
2018-07-24T07:47:54.381Z,32.90
2018-07-24T07:50:23.449Z,32.47
2018-07-24T07:52:52.566Z,32.83
2018-07-24T07:55:21.695Z,33.10
2018-07-24T07:57:50.765Z,32.51
2018-07-24T08:00:19.991Z,31.92
2018-07-24T08:02:49.113Z,32.41
2018-07-24T08:05:18.248Z,32.08
2018-07-24T08:07:47.378Z,31.27
2018-07-24T08:10:16.596Z,31.49
2018-07-24T08:12:45.806Z,32.01
2018-07-24T08:15:14.881Z,31.70
2018-07-24T08:17:43.967Z,32.04
2018-07-24T08:20:13.084Z,31.53
2018-07-24T08:22:42.174Z,31.16
2018-07-24T08:25:11.282Z,30.19
2018-07-24T08:27:40.383Z,30.85
2018-07-24T08:30:09.622Z,30.27
2018-07-24T08:32:38.670Z,30.92
2018-07-24T08:35:07.815Z,31.04
2018-07-24T08:37:36.949Z,30.37
2018-07-24T08:40:06.047Z,30.70
2018-07-24T08:42:35.179Z,31.47
2018-07-24T08:45:04.429Z,30.36
2018-07-24T08:47:33.547Z,30.91
2018-07-24T08:50:02.815Z,30.68
2018-07-24T08:52:32.054Z,30.68
2018-07-24T08:55:01.298Z,30.29
2018-07-24T08:57:30.220Z,29.25
2018-07-24T08:59:59.344Z,28.33
2018-07-24T09:02:28.407Z,25.91
2018-07-24T09:04:57.322Z,23.70
2018-07-24T09:07:26.314Z,21.01
2018-07-24T09:09:55.450Z,20.68
2018-07-24T09:12:24.601Z,21.22
2018-07-24T09:14:53.665Z,20.72
2018-07-24T09:17:22.771Z,20.51
2018-07-24T09:19:51.833Z,20.53
2018-07-24T09:22:20.966Z,19.66
2018-07-24T09:24:49.873Z,19.53
2018-07-24T09:27:18.998Z,20.13
2018-07-24T09:29:48.070Z,20.40
2018-07-24T09:32:17.195Z,21.00
2018-07-24T09:34:46.302Z,20.82
2018-07-24T09:37:15.390Z,21.43
2018-07-24T09:39:44.806Z,20.84
2018-07-24T09:42:13.892Z,20.77
2018-07-24T09:44:43.001Z,21.41
2018-07-24T09:47:12.081Z,20.33
2018-07-24T09:49:41.174Z,19.35
2018-07-24T09:52:10.266Z,20.88
2018-07-24T09:54:39.361Z,20.65
2018-07-24T09:57:08.488Z,21.85
2018-07-24T09:59:37.622Z,20.55
2018-07-24T10:02:06.899Z,21.03
2018-07-24T10:04:36.018Z,20.80
2018-07-24T10:07:05.144Z,19.95
2018-07-24T10:09:34.259Z,20.04
2018-07-24T10:12:03.336Z,21.13
2018-07-24T10:14:32.426Z,21.10
2018-07-24T10:17:01.553Z,20.79
2018-07-24T10:19:30.633Z,20.84
2018-07-24T10:21:59.754Z,21.03
2018-07-24T10:24:28.887Z,20.66
2018-07-24T10:26:57.958Z,20.86
2018-07-24T10:29:27.085Z,20.84
2018-07-24T10:31:56.302Z,21.34
2018-07-24T10:34:25.423Z,22.71
2018-07-24T10:36:54.544Z,25.75
2018-07-24T10:39:23.680Z,26.88
2018-07-24T10:41:52.755Z,27.15
2018-07-24T10:44:21.856Z,27.67
2018-07-24T10:46:50.982Z,27.96
2018-07-24T10:49:20.110Z,28.56
2018-07-24T10:51:49.213Z,28.39
2018-07-24T10:54:19.132Z,29.01
2018-07-24T10:56:48.217Z,29.23
2018-07-24T10:59:17.327Z,28.94
2018-07-24T11:01:46.486Z,29.09
2018-07-24T11:04:15.579Z,28.51
2018-07-24T11:06:44.657Z,28.05
2018-07-24T11:09:13.721Z,28.16
2018-07-24T11:11:42.820Z,28.18
2018-07-24T11:14:11.929Z,28.27
2018-07-24T11:16:41.055Z,28.82
2018-07-24T11:19:10.162Z,28.78
2018-07-24T11:21:39.284Z,28.75
2018-07-24T11:24:08.574Z,28.98
2018-07-24T11:26:37.718Z,28.45
2018-07-24T11:29:06.828Z,28.55
2018-07-24T11:31:35.906Z,28.71
2018-07-24T11:34:05.029Z,28.07
2018-07-24T11:36:34.099Z,28.25
2018-07-24T11:39:03.283Z,27.25
2018-07-24T11:41:32.400Z,27.23
2018-07-24T11:44:01.532Z,27.33
2018-07-24T11:46:30.699Z,27.41
2018-07-24T11:49:00.062Z,28.07
2018-07-24T11:51:29.258Z,27.67
2018-07-24T11:53:58.362Z,27.81
2018-07-24T11:56:27.545Z,27.89
2018-07-24T11:58:56.669Z,27.01
2018-07-24T12:01:25.780Z,27.30
2018-07-24T12:03:54.928Z,28.03
2018-07-24T12:06:24.124Z,27.63
2018-07-24T12:08:53.240Z,26.85
2018-07-24T12:11:22.361Z,27.44
2018-07-24T12:13:51.539Z,27.37
2018-07-24T12:16:20.727Z,26.66
2018-07-24T12:18:49.778Z,26.39
2018-07-24T12:21:18.870Z,26.23
2018-07-24T12:23:47.955Z,26.64
2018-07-24T12:26:17.115Z,26.51
2018-07-24T12:28:46.206Z,26.76
2018-07-24T12:31:15.291Z,26.44
2018-07-24T12:33:44.427Z,26.88
2018-07-24T12:36:13.625Z,27.05
2018-07-24T12:38:42.609Z,26.90
2018-07-24T12:41:11.735Z,25.80
2018-07-24T12:43:40.882Z,26.26
2018-07-24T12:46:09.918Z,25.33
2018-07-24T12:48:39.024Z,25.69
2018-07-24T12:51:08.219Z,25.89
2018-07-24T12:53:37.282Z,26.01
2018-07-24T12:56:06.374Z,26.48
2018-07-24T12:58:35.498Z,26.28
2018-07-24T13:01:04.595Z,26.66
2018-07-24T13:03:33.705Z,26.64
2018-07-24T13:06:02.822Z,25.62
2018-07-24T13:08:31.906Z,25.33
2018-07-24T13:11:01.057Z,24.92
2018-07-24T13:13:30.147Z,24.94
2018-07-24T13:15:59.290Z,26.05
2018-07-24T13:18:28.380Z,25.95
2018-07-24T13:20:57.433Z,25.58
2018-07-24T13:23:26.607Z,25.69
2018-07-24T13:25:55.723Z,24.85
2018-07-24T13:28:24.777Z,24.95
2018-07-24T13:30:53.866Z,24.14
2018-07-24T13:33:22.991Z,24.19
2018-07-24T13:35:52.118Z,24.51
2018-07-24T13:38:21.213Z,24.72
2018-07-24T13:40:50.322Z,25.27
2018-07-24T13:43:19.392Z,24.58
2018-07-24T13:45:48.508Z,25.57
2018-07-24T13:48:17.629Z,25.18
2018-07-24T13:50:46.744Z,25.77
2018-07-24T13:53:15.888Z,25.31
2018-07-24T13:55:45.023Z,24.63
2018-07-24T13:58:14.136Z,25.07
2018-07-24T14:00:43.284Z,24.20
2018-07-24T14:03:12.534Z,23.94
2018-07-24T14:05:41.679Z,25.82
2018-07-24T14:08:10.758Z,24.90
2018-07-24T14:10:39.942Z,24.52
2018-07-24T14:13:09.031Z,24.60
2018-07-24T14:15:37.965Z,24.89
2018-07-24T14:18:07.115Z,25.59
2018-07-24T14:20:36.232Z,25.33
2018-07-24T14:23:05.347Z,25.16
2018-07-24T14:25:34.450Z,24.56
2018-07-24T14:28:03.549Z,24.46
2018-07-24T14:30:32.704Z,24.95
2018-07-24T14:33:01.798Z,25.35
2018-07-24T14:35:30.928Z,25.18
2018-07-24T14:38:00.048Z,25.07
2018-07-24T14:40:29.230Z,25.66
2018-07-24T14:42:58.750Z,25.27
2018-07-24T14:45:28.010Z,25.16
2018-07-24T14:47:57.184Z,25.92
2018-07-24T14:50:26.277Z,25.73
2018-07-24T14:52:55.412Z,25.47
2018-07-24T14:55:24.530Z,25.68
2018-07-24T14:57:53.638Z,25.54
2018-07-24T15:00:22.768Z,25.64
2018-07-24T15:02:51.886Z,25.12
2018-07-24T15:05:20.981Z,24.76
2018-07-24T15:07:50.092Z,25.30
2018-07-24T15:10:19.212Z,25.69
2018-07-24T15:12:48.322Z,25.57
2018-07-24T15:15:17.393Z,26.00
2018-07-24T15:17:46.498Z,25.89
2018-07-24T15:20:15.710Z,25.91
2018-07-24T15:22:44.825Z,25.84
2018-07-24T15:25:13.737Z,26.11
2018-07-24T15:27:42.951Z,25.49
2018-07-24T15:30:12.025Z,26.13
2018-07-24T15:32:41.117Z,25.77
2018-07-24T15:35:10.288Z,26.00
2018-07-24T15:37:39.363Z,25.73
2018-07-24T15:40:08.495Z,25.45
2018-07-24T15:42:37.409Z,25.79
2018-07-24T15:45:06.758Z,25.51
2018-07-24T15:47:35.875Z,25.33
2018-07-24T15:50:05.250Z,25.66
2018-07-24T15:52:34.371Z,26.35
2018-07-24T15:55:03.551Z,26.79
2018-07-24T15:57:32.602Z,26.20
2018-07-24T16:00:01.742Z,26.13
2018-07-24T16:02:30.899Z,26.26
2018-07-24T16:04:59.951Z,26.49
2018-07-24T16:07:29.203Z,26.04
2018-07-24T16:09:58.339Z,26.36
2018-07-24T16:12:27.437Z,25.91
2018-07-24T16:14:56.594Z,26.17
2018-07-24T16:17:25.752Z,25.92
2018-07-24T16:19:54.817Z,26.60
2018-07-24T16:22:23.910Z,26.22
2018-07-24T16:24:53.115Z,25.88
2018-07-24T16:27:22.258Z,25.65
2018-07-24T16:29:51.348Z,26.20
2018-07-24T16:32:20.487Z,26.83
2018-07-24T16:34:49.554Z,26.63
2018-07-24T16:37:18.653Z,26.64
2018-07-24T16:39:47.780Z,26.79
2018-07-24T16:42:16.908Z,27.25
2018-07-24T16:44:45.996Z,27.16
2018-07-24T16:47:15.203Z,27.04
2018-07-24T16:49:44.358Z,26.95
2018-07-24T16:52:13.422Z,26.68
2018-07-24T16:54:42.547Z,27.37
2018-07-24T16:57:11.649Z,27.72
2018-07-24T16:59:40.749Z,28.14
2018-07-24T17:02:10.104Z,27.18
2018-07-24T17:04:40.654Z,27.85
2018-07-24T17:07:09.713Z,27.82
2018-07-24T17:09:38.810Z,27.25
2018-07-24T17:12:08.128Z,27.43
2018-07-24T17:14:37.255Z,28.07
2018-07-24T17:17:06.313Z,27.65
2018-07-24T17:19:35.402Z,27.62
2018-07-24T17:22:04.511Z,28.51
2018-07-24T17:24:33.592Z,28.48
2018-07-24T17:27:02.710Z,29.02
2018-07-24T17:29:31.840Z,28.98
2018-07-24T17:32:00.917Z,29.31
2018-07-24T17:34:30.057Z,29.31
2018-07-24T17:36:59.434Z,29.84
2018-07-24T17:39:28.578Z,29.49
2018-07-24T17:41:57.692Z,29.66
2018-07-24T17:44:26.831Z,30.55
2018-07-24T17:46:56.014Z,30.02
2018-07-24T17:49:25.235Z,30.62
2018-07-24T17:51:54.642Z,30.64
2018-07-24T17:54:23.843Z,30.37
2018-07-24T17:56:53.089Z,30.47
2018-07-24T17:59:22.662Z,30.68
2018-07-24T18:01:51.805Z,30.85
2018-07-24T18:04:20.898Z,30.93
2018-07-24T18:06:50.047Z,31.18
2018-07-24T18:09:19.198Z,31.58
2018-07-24T18:11:48.288Z,31.39
2018-07-24T18:14:17.416Z,31.83
2018-07-24T18:16:46.513Z,31.68
2018-07-24T18:19:15.617Z,31.57
2018-07-24T18:21:44.722Z,32.32
2018-07-24T18:24:13.831Z,31.92
2018-07-24T18:26:42.890Z,32.61
2018-07-24T18:29:11.995Z,32.42
2018-07-24T18:31:41.065Z,32.70
2018-07-24T18:34:10.218Z,32.74
2018-07-24T18:36:39.359Z,32.91
2018-07-24T18:39:09.651Z,33.29
2018-07-24T18:41:38.723Z,33.75
2018-07-24T18:44:07.812Z,33.50
2018-07-24T18:46:36.932Z,33.99
2018-07-24T18:49:06.060Z,33.77
2018-07-24T18:51:35.178Z,33.88
2018-07-24T18:54:04.333Z,34.03
2018-07-24T18:56:33.428Z,34.65
2018-07-24T18:59:02.498Z,34.87
2018-07-24T19:01:31.602Z,34.91
2018-07-24T19:04:00.681Z,34.70
2018-07-24T19:06:29.806Z,35.29
2018-07-24T19:08:58.898Z,35.36
2018-07-24T19:11:28.087Z,35.28
2018-07-24T19:16:54.356Z,35.99
2018-07-24T19:19:23.441Z,36.20
2018-07-24T19:21:52.536Z,36.40
2018-07-24T19:24:21.649Z,36.13
2018-07-24T19:26:50.738Z,36.60
2018-07-24T19:29:19.829Z,36.40
2018-07-24T19:31:49.001Z,36.47
2018-07-24T19:34:18.130Z,36.50
2018-07-24T19:36:47.222Z,36.95
2018-07-24T19:39:16.293Z,36.90
2018-07-24T19:41:45.407Z,36.83
2018-07-24T19:44:14.516Z,37.54
2018-07-24T19:46:43.623Z,37.11
2018-07-24T19:49:12.678Z,37.58
2018-07-24T19:51:41.787Z,37.32
2018-07-24T19:54:10.954Z,37.91
2018-07-24T19:56:40.057Z,37.69
2018-07-24T19:59:09.144Z,37.69
2018-07-24T20:01:38.252Z,38.08
2018-07-24T20:04:07.326Z,37.77
2018-07-24T20:06:36.479Z,37.84
2018-07-24T20:09:09.570Z,38.19
2018-07-24T20:11:38.677Z,38.27
2018-07-24T20:14:07.948Z,38.28
2018-07-24T20:16:37.255Z,38.53
2018-07-24T20:22:03.379Z,38.76
2018-07-24T20:24:32.605Z,38.91
2018-07-24T20:27:01.705Z,39.40
2018-07-24T20:29:30.745Z,39.19
2018-07-24T20:31:59.848Z,39.16
2018-07-24T20:34:29.235Z,39.52
2018-07-24T20:36:58.414Z,40.00
2018-07-24T20:39:27.493Z,39.78
2018-07-24T20:41:56.651Z,39.94
2018-07-24T20:44:25.762Z,39.56
2018-07-24T20:46:54.838Z,40.17
2018-07-24T20:49:24.048Z,40.22
2018-07-24T20:51:53.141Z,39.87
2018-07-24T20:54:22.486Z,40.13
2018-07-24T20:56:51.592Z,41.16
2018-07-24T20:59:20.661Z,41.25
2018-07-24T21:01:49.754Z,41.44
2018-07-24T21:04:18.940Z,41.64
2018-07-24T21:06:48.055Z,41.44
2018-07-24T21:09:17.138Z,41.66
2018-07-24T21:11:46.209Z,42.38
2018-07-24T21:14:15.253Z,42.75
2018-07-24T21:16:44.367Z,42.49
2018-07-24T21:19:13.289Z,42.59
2018-07-24T21:21:42.371Z,42.96
2018-07-24T21:24:11.475Z,43.31
2018-07-24T21:26:40.566Z,43.46
2018-07-24T21:29:09.692Z,43.44
2018-07-24T21:31:38.814Z,43.92
2018-07-24T21:34:07.938Z,44.27
2018-07-24T21:36:36.981Z,44.08
2018-07-24T21:39:09.118Z,43.72
2018-07-24T21:41:38.253Z,43.94
2018-07-24T21:44:07.403Z,44.42
2018-07-24T21:46:36.589Z,44.42
2018-07-24T21:49:05.696Z,44.60
2018-07-24T21:51:34.766Z,43.94
2018-07-24T21:54:03.875Z,44.49
2018-07-24T21:56:32.957Z,44.27
2018-07-24T21:59:02.018Z,45.18
2018-07-24T22:01:31.135Z,44.92
2018-07-24T22:04:00.197Z,44.88
2018-07-24T22:06:29.278Z,45.08
2018-07-24T22:08:58.447Z,45.05
2018-07-24T22:11:27.492Z,44.94
2018-07-24T22:13:56.552Z,44.91
2018-07-24T22:16:25.624Z,44.95
2018-07-24T22:18:54.747Z,45.18
2018-07-24T22:21:23.820Z,45.48
2018-07-24T22:23:52.957Z,45.61
2018-07-24T22:26:22.120Z,45.63
2018-07-24T22:28:51.230Z,46.17
2018-07-24T22:31:20.356Z,46.03
2018-07-24T22:33:49.507Z,46.36
2018-07-24T22:36:18.585Z,46.92
2018-07-24T22:38:47.710Z,46.89
2018-07-24T22:41:16.806Z,46.71
2018-07-24T22:43:46.058Z,47.17
2018-07-24T22:46:15.105Z,47.07
2018-07-24T22:48:44.200Z,47.21
2018-07-24T22:51:13.321Z,47.19
2018-07-24T22:53:42.434Z,46.76
2018-07-24T22:56:11.552Z,47.05
2018-07-24T22:58:40.687Z,47.49
2018-07-24T23:01:09.831Z,47.24
2018-07-24T23:03:38.889Z,47.42
2018-07-24T23:06:08.010Z,47.20
2018-07-24T23:08:37.110Z,47.47
2018-07-24T23:11:06.216Z,47.39
2018-07-24T23:13:35.317Z,47.72
2018-07-24T23:16:04.474Z,48.05
2018-07-24T23:18:33.625Z,48.52
2018-07-24T23:21:02.752Z,48.69
2018-07-24T23:23:31.886Z,48.51
2018-07-24T23:26:00.999Z,48.66
2018-07-24T23:28:30.088Z,48.94
2018-07-24T23:31:00.859Z,48.65
2018-07-24T23:33:29.991Z,48.99
2018-07-24T23:35:59.115Z,48.99
2018-07-24T23:38:28.234Z,49.06
2018-07-24T23:40:57.289Z,49.27
2018-07-24T23:43:26.402Z,49.43
2018-07-24T23:45:55.570Z,49.56
2018-07-24T23:48:24.651Z,49.61
2018-07-24T23:50:53.767Z,49.26
2018-07-24T23:53:22.850Z,49.71
2018-07-24T23:55:51.933Z,49.75
2018-07-24T23:58:21.044Z,49.63
